sensor_id;sensor_type;location;lat;lon;timestamp;P1;durP1;ratioP1;P2;durP2;ratioP2
55067;SDS011;40965;52.368;9.712;2022-08-19T00:01:57;8.48;;;6.43;;
55067;SDS011;40965;52.368;9.712;2022-08-19T00:04:25;8.60;;;6.40;;
55067;SDS011;40965;52.368;9.712;2022-08-19T00:06:56;14.60;;;6.40;;
55067;SDS011;40965;52.368;9.712;2022-08-19T00:09:25;7.25;;;6.25;;
55067;SDS011;40965;52.368;9.712;2022-08-19T00:11:52;6.25;;;5.63;;
55067;SDS011;40965;52.368;9.712;2022-08-19T00:14:21;6.38;;;5.78;;
55067;SDS011;40965;52.368;9.712;2022-08-19T00:16:49;6.82;;;5.63;;
55067;SDS011;40965;52.368;9.712;2022-08-19T00:19:19;7.30;;;6.43;;
55067;SDS011;40965;52.368;9.712;2022-08-19T00:21:47;8.23;;;6.65;;
55067;SDS011;40965;52.368;9.712;2022-08-19T00:24:14;8.65;;;6.78;;
55067;SDS011;40965;52.368;9.712;2022-08-19T00:26:41;7.53;;;5.85;;
55067;SDS011;40965;52.368;9.712;2022-08-19T00:29:14;8.77;;;7.10;;
55067;SDS011;40965;52.368;9.712;2022-08-19T00:31:44;7.10;;;6.35;;
55067;SDS011;40965;52.368;9.712;2022-08-19T00:34:13;8.88;;;6.80;;
55067;SDS011;40965;52.368;9.712;2022-08-19T00:36:41;12.00;;;6.57;;
55067;SDS011;40965;52.368;9.712;2022-08-19T00:39:09;6.70;;;6.10;;
55067;SDS011;40965;52.368;9.712;2022-08-19T00:41:37;6.93;;;6.22;;
55067;SDS011;40965;52.368;9.712;2022-08-19T00:46:36;9.95;;;6.72;;
55067;SDS011;40965;52.368;9.712;2022-08-19T00:49:06;7.50;;;6.70;;
55067;SDS011;40965;52.368;9.712;2022-08-19T00:54:48;6.93;;;6.03;;
55067;SDS011;40965;52.368;9.712;2022-08-19T00:57:17;9.57;;;7.03;;
55067;SDS011;40965;52.368;9.712;2022-08-19T00:59:50;9.53;;;7.17;;
55067;SDS011;40965;52.368;9.712;2022-08-19T01:02:18;10.80;;;6.07;;
55067;SDS011;40965;52.368;9.712;2022-08-19T01:04:45;10.93;;;6.72;;
55067;SDS011;40965;52.368;9.712;2022-08-19T01:07:12;7.93;;;6.70;;
55067;SDS011;40965;52.368;9.712;2022-08-19T01:09:39;10.85;;;6.57;;
55067;SDS011;40965;52.368;9.712;2022-08-19T01:12:06;6.78;;;5.95;;
55067;SDS011;40965;52.368;9.712;2022-08-19T01:14:33;10.80;;;7.10;;
55067;SDS011;40965;52.368;9.712;2022-08-19T01:17:02;8.38;;;7.20;;
55067;SDS011;40965;52.368;9.712;2022-08-19T01:19:31;10.35;;;6.95;;
55067;SDS011;40965;52.368;9.712;2022-08-19T01:22:06;7.30;;;6.60;;
55067;SDS011;40965;52.368;9.712;2022-08-19T01:24:41;10.77;;;8.23;;
55067;SDS011;40965;52.368;9.712;2022-08-19T01:27:07;12.57;;;7.53;;
55067;SDS011;40965;52.368;9.712;2022-08-19T01:29:36;7.50;;;6.68;;
55067;SDS011;40965;52.368;9.712;2022-08-19T01:32:06;9.10;;;7.22;;
55067;SDS011;40965;52.368;9.712;2022-08-19T01:34:36;9.60;;;6.82;;
55067;SDS011;40965;52.368;9.712;2022-08-19T01:37:07;9.98;;;6.53;;
55067;SDS011;40965;52.368;9.712;2022-08-19T01:39:36;7.63;;;6.80;;
55067;SDS011;40965;52.368;9.712;2022-08-19T01:42:06;9.68;;;7.55;;
55067;SDS011;40965;52.368;9.712;2022-08-19T01:44:38;8.68;;;7.32;;
55067;SDS011;40965;52.368;9.712;2022-08-19T01:47:07;12.77;;;8.13;;
55067;SDS011;40965;52.368;9.712;2022-08-19T01:49:35;7.97;;;7.18;;
55067;SDS011;40965;52.368;9.712;2022-08-19T01:52:04;9.55;;;7.95;;
55067;SDS011;40965;52.368;9.712;2022-08-19T01:54:33;12.90;;;8.27;;
55067;SDS011;40965;52.368;9.712;2022-08-19T01:57:05;9.25;;;8.23;;
55067;SDS011;40965;52.368;9.712;2022-08-19T01:59:35;9.40;;;7.60;;
55067;SDS011;40965;52.368;9.712;2022-08-19T02:02:04;9.25;;;7.07;;
55067;SDS011;40965;52.368;9.712;2022-08-19T02:04:32;9.90;;;6.53;;
55067;SDS011;40965;52.368;9.712;2022-08-19T02:06:59;7.55;;;6.82;;
55067;SDS011;40965;52.368;9.712;2022-08-19T02:09:30;10.25;;;7.05;;
55067;SDS011;40965;52.368;9.712;2022-08-19T02:11:58;8.30;;;7.50;;
55067;SDS011;40965;52.368;9.712;2022-08-19T02:14:25;9.65;;;7.30;;
55067;SDS011;40965;52.368;9.712;2022-08-19T02:16:52;7.60;;;6.90;;
55067;SDS011;40965;52.368;9.712;2022-08-19T02:19:18;8.55;;;6.93;;
55067;SDS011;40965;52.368;9.712;2022-08-19T02:21:45;13.15;;;8.40;;
55067;SDS011;40965;52.368;9.712;2022-08-19T02:24:12;8.02;;;7.00;;
55067;SDS011;40965;52.368;9.712;2022-08-19T02:26:39;9.30;;;7.00;;
55067;SDS011;40965;52.368;9.712;2022-08-19T02:29:06;12.00;;;7.97;;
55067;SDS011;40965;52.368;9.712;2022-08-19T02:31:35;7.20;;;6.28;;
55067;SDS011;40965;52.368;9.712;2022-08-19T02:34:02;8.13;;;7.15;;
55067;SDS011;40965;52.368;9.712;2022-08-19T02:36:29;7.63;;;6.45;;
55067;SDS011;40965;52.368;9.712;2022-08-19T02:38:56;8.57;;;6.75;;
55067;SDS011;40965;52.368;9.712;2022-08-19T02:41:23;9.25;;;7.90;;
55067;SDS011;40965;52.368;9.712;2022-08-19T02:43:55;12.13;;;7.20;;
55067;SDS011;40965;52.368;9.712;2022-08-19T02:46:25;9.68;;;6.90;;
55067;SDS011;40965;52.368;9.712;2022-08-19T02:48:59;11.68;;;7.95;;
55067;SDS011;40965;52.368;9.712;2022-08-19T02:51:29;9.18;;;8.07;;
55067;SDS011;40965;52.368;9.712;2022-08-19T02:54:02;8.30;;;6.70;;
55067;SDS011;40965;52.368;9.712;2022-08-19T02:56:29;10.27;;;7.10;;
55067;SDS011;40965;52.368;9.712;2022-08-19T02:59:00;9.30;;;7.05;;
55067;SDS011;40965;52.368;9.712;2022-08-19T03:01:31;9.05;;;7.07;;
55067;SDS011;40965;52.368;9.712;2022-08-19T03:04:00;8.27;;;7.17;;
55067;SDS011;40965;52.368;9.712;2022-08-19T03:06:29;11.57;;;7.22;;
55067;SDS011;40965;52.368;9.712;2022-08-19T03:08:57;10.55;;;7.28;;
55067;SDS011;40965;52.368;9.712;2022-08-19T03:11:30;10.18;;;7.35;;
55067;SDS011;40965;52.368;9.712;2022-08-19T03:13:58;6.80;;;6.18;;
55067;SDS011;40965;52.368;9.712;2022-08-19T03:16:26;6.97;;;6.15;;
55067;SDS011;40965;52.368;9.712;2022-08-19T03:18:56;8.75;;;6.53;;
55067;SDS011;40965;52.368;9.712;2022-08-19T03:21:27;10.48;;;7.15;;
55067;SDS011;40965;52.368;9.712;2022-08-19T03:24:00;12.68;;;7.53;;
55067;SDS011;40965;52.368;9.712;2022-08-19T03:26:40;12.27;;;7.75;;
55067;SDS011;40965;52.368;9.712;2022-08-19T03:29:17;7.95;;;6.72;;
55067;SDS011;40965;52.368;9.712;2022-08-19T03:31:49;8.38;;;6.75;;
55067;SDS011;40965;52.368;9.712;2022-08-19T03:34:27;7.07;;;6.35;;
55067;SDS011;40965;52.368;9.712;2022-08-19T03:36:56;7.53;;;6.55;;
55067;SDS011;40965;52.368;9.712;2022-08-19T03:39:31;8.57;;;6.68;;
55067;SDS011;40965;52.368;9.712;2022-08-19T03:41:58;8.43;;;7.53;;
55067;SDS011;40965;52.368;9.712;2022-08-19T03:44:27;9.80;;;7.28;;
55067;SDS011;40965;52.368;9.712;2022-08-19T03:46:57;7.25;;;6.25;;
55067;SDS011;40965;52.368;9.712;2022-08-19T03:49:27;7.95;;;6.75;;
55067;SDS011;40965;52.368;9.712;2022-08-19T03:51:57;10.15;;;6.57;;
55067;SDS011;40965;52.368;9.712;2022-08-19T03:54:25;6.93;;;6.28;;
55067;SDS011;40965;52.368;9.712;2022-08-19T03:56:54;8.45;;;6.53;;
55067;SDS011;40965;52.368;9.712;2022-08-19T03:59:28;8.20;;;6.10;;
55067;SDS011;40965;52.368;9.712;2022-08-19T04:02:00;10.55;;;6.95;;
55067;SDS011;40965;52.368;9.712;2022-08-19T04:04:29;7.50;;;6.80;;
55067;SDS011;40965;52.368;9.712;2022-08-19T04:06:56;10.13;;;6.20;;
55067;SDS011;40965;52.368;9.712;2022-08-19T04:09:23;8.55;;;6.57;;
55067;SDS011;40965;52.368;9.712;2022-08-19T04:11:55;9.73;;;6.43;;
55067;SDS011;40965;52.368;9.712;2022-08-19T04:14:25;9.45;;;6.20;;
55067;SDS011;40965;52.368;9.712;2022-08-19T04:16:57;9.80;;;7.22;;
55067;SDS011;40965;52.368;9.712;2022-08-19T04:19:26;8.05;;;7.00;;
55067;SDS011;40965;52.368;9.712;2022-08-19T04:21:57;10.52;;;7.82;;
55067;SDS011;40965;52.368;9.712;2022-08-19T04:24:24;9.13;;;7.70;;
55067;SDS011;40965;52.368;9.712;2022-08-19T04:26:51;9.02;;;7.78;;
55067;SDS011;40965;52.368;9.712;2022-08-19T04:29:19;11.32;;;7.47;;
55067;SDS011;40965;52.368;9.712;2022-08-19T04:31:50;8.43;;;7.50;;
55067;SDS011;40965;52.368;9.712;2022-08-19T04:34:19;7.70;;;7.10;;
55067;SDS011;40965;52.368;9.712;2022-08-19T04:36:50;9.27;;;7.47;;
55067;SDS011;40965;52.368;9.712;2022-08-19T04:39:20;8.85;;;7.55;;
55067;SDS011;40965;52.368;9.712;2022-08-19T04:42:15;10.95;;;7.20;;
55067;SDS011;40965;52.368;9.712;2022-08-19T04:45:02;9.65;;;7.47;;
55067;SDS011;40965;52.368;9.712;2022-08-19T04:47:34;7.68;;;6.93;;
55067;SDS011;40965;52.368;9.712;2022-08-19T04:50:05;10.75;;;7.97;;
55067;SDS011;40965;52.368;9.712;2022-08-19T04:52:37;8.80;;;7.55;;
55067;SDS011;40965;52.368;9.712;2022-08-19T04:55:09;8.55;;;6.97;;
55067;SDS011;40965;52.368;9.712;2022-08-19T04:57:37;8.88;;;7.07;;
55067;SDS011;40965;52.368;9.712;2022-08-19T05:00:05;9.80;;;6.55;;
55067;SDS011;40965;52.368;9.712;2022-08-19T05:02:34;10.15;;;6.75;;
55067;SDS011;40965;52.368;9.712;2022-08-19T05:05:00;8.85;;;6.95;;
55067;SDS011;40965;52.368;9.712;2022-08-19T05:07:31;7.70;;;6.55;;
55067;SDS011;40965;52.368;9.712;2022-08-19T05:09:58;12.65;;;9.05;;
55067;SDS011;40965;52.368;9.712;2022-08-19T05:12:24;9.27;;;7.70;;
55067;SDS011;40965;52.368;9.712;2022-08-19T05:14:52;9.95;;;7.53;;
55067;SDS011;40965;52.368;9.712;2022-08-19T05:17:31;13.88;;;8.50;;
55067;SDS011;40965;52.368;9.712;2022-08-19T05:19:58;9.10;;;7.75;;
55067;SDS011;40965;52.368;9.712;2022-08-19T05:22:43;13.95;;;9.30;;
55067;SDS011;40965;52.368;9.712;2022-08-19T05:25:15;10.38;;;8.95;;
55067;SDS011;40965;52.368;9.712;2022-08-19T05:27:45;9.13;;;8.07;;
55067;SDS011;40965;52.368;9.712;2022-08-19T05:30:14;12.57;;;9.85;;
55067;SDS011;40965;52.368;9.712;2022-08-19T05:32:42;12.98;;;9.60;;
55067;SDS011;40965;52.368;9.712;2022-08-19T05:35:09;15.10;;;9.73;;
55067;SDS011;40965;52.368;9.712;2022-08-19T05:37:39;14.02;;;8.73;;
55067;SDS011;40965;52.368;9.712;2022-08-19T05:40:06;13.82;;;8.52;;
55067;SDS011;40965;52.368;9.712;2022-08-19T05:42:37;14.02;;;9.18;;
55067;SDS011;40965;52.368;9.712;2022-08-19T05:45:05;14.30;;;8.52;;
55067;SDS011;40965;52.368;9.712;2022-08-19T05:47:33;12.55;;;9.68;;
55067;SDS011;40965;52.368;9.712;2022-08-19T05:50:00;13.77;;;9.27;;
55067;SDS011;40965;52.368;9.712;2022-08-19T05:52:30;17.08;;;10.50;;
55067;SDS011;40965;52.368;9.712;2022-08-19T05:54:57;10.75;;;8.52;;
55067;SDS011;40965;52.368;9.712;2022-08-19T05:57:28;13.57;;;9.52;;
55067;SDS011;40965;52.368;9.712;2022-08-19T06:00:15;12.63;;;9.10;;
55067;SDS011;40965;52.368;9.712;2022-08-19T06:02:52;15.60;;;10.13;;
55067;SDS011;40965;52.368;9.712;2022-08-19T06:05:31;14.63;;;10.88;;
55067;SDS011;40965;52.368;9.712;2022-08-19T06:07:59;14.93;;;11.13;;
55067;SDS011;40965;52.368;9.712;2022-08-19T06:10:25;16.55;;;12.23;;
55067;SDS011;40965;52.368;9.712;2022-08-19T06:12:53;33.70;;;14.18;;
55067;SDS011;40965;52.368;9.712;2022-08-19T06:15:21;16.63;;;11.18;;
55067;SDS011;40965;52.368;9.712;2022-08-19T06:17:50;15.75;;;11.85;;
55067;SDS011;40965;52.368;9.712;2022-08-19T06:20:20;15.55;;;10.50;;
55067;SDS011;40965;52.368;9.712;2022-08-19T06:22:49;15.70;;;12.20;;
55067;SDS011;40965;52.368;9.712;2022-08-19T06:25:20;14.75;;;12.15;;
55067;SDS011;40965;52.368;9.712;2022-08-19T06:27:47;12.32;;;10.23;;
55067;SDS011;40965;52.368;9.712;2022-08-19T06:30:14;14.75;;;10.90;;
55067;SDS011;40965;52.368;9.712;2022-08-19T06:32:41;12.55;;;11.25;;
55067;SDS011;40965;52.368;9.712;2022-08-19T06:35:08;18.15;;;12.73;;
55067;SDS011;40965;52.368;9.712;2022-08-19T06:37:36;17.42;;;13.38;;
55067;SDS011;40965;52.368;9.712;2022-08-19T06:40:03;15.32;;;11.98;;
55067;SDS011;40965;52.368;9.712;2022-08-19T06:42:36;16.55;;;12.05;;
55067;SDS011;40965;52.368;9.712;2022-08-19T06:45:05;17.20;;;12.52;;
55067;SDS011;40965;52.368;9.712;2022-08-19T06:47:34;16.25;;;12.32;;
55067;SDS011;40965;52.368;9.712;2022-08-19T06:50:01;19.10;;;13.93;;
55067;SDS011;40965;52.368;9.712;2022-08-19T06:52:30;18.67;;;14.65;;
55067;SDS011;40965;52.368;9.712;2022-08-19T06:54:59;22.02;;;14.15;;
55067;SDS011;40965;52.368;9.712;2022-08-19T06:57:27;19.17;;;12.55;;
55067;SDS011;40965;52.368;9.712;2022-08-19T06:59:57;16.65;;;13.45;;
55067;SDS011;40965;52.368;9.712;2022-08-19T07:02:29;22.50;;;15.38;;
55067;SDS011;40965;52.368;9.712;2022-08-19T07:04:55;16.88;;;13.52;;
55067;SDS011;40965;52.368;9.712;2022-08-19T07:07:29;18.20;;;12.30;;
55067;SDS011;40965;52.368;9.712;2022-08-19T07:09:56;19.30;;;12.98;;
55067;SDS011;40965;52.368;9.712;2022-08-19T07:12:30;17.30;;;12.80;;
55067;SDS011;40965;52.368;9.712;2022-08-19T07:14:59;15.88;;;11.82;;
55067;SDS011;40965;52.368;9.712;2022-08-19T07:17:27;16.02;;;12.65;;
55067;SDS011;40965;52.368;9.712;2022-08-19T07:19:54;16.40;;;13.38;;
55067;SDS011;40965;52.368;9.712;2022-08-19T07:22:21;15.48;;;12.98;;
55067;SDS011;40965;52.368;9.712;2022-08-19T07:24:48;16.73;;;13.40;;
55067;SDS011;40965;52.368;9.712;2022-08-19T07:27:18;14.82;;;12.45;;
55067;SDS011;40965;52.368;9.712;2022-08-19T07:29:48;22.63;;;14.65;;
55067;SDS011;40965;52.368;9.712;2022-08-19T07:32:17;16.38;;;13.77;;
55067;SDS011;40965;52.368;9.712;2022-08-19T07:34:48;15.70;;;13.30;;
55067;SDS011;40965;52.368;9.712;2022-08-19T07:37:18;17.80;;;13.80;;
55067;SDS011;40965;52.368;9.712;2022-08-19T07:39:55;18.63;;;13.75;;
55067;SDS011;40965;52.368;9.712;2022-08-19T07:42:22;19.20;;;16.45;;
55067;SDS011;40965;52.368;9.712;2022-08-19T07:44:49;18.35;;;14.68;;
55067;SDS011;40965;52.368;9.712;2022-08-19T07:47:16;23.00;;;15.60;;
55067;SDS011;40965;52.368;9.712;2022-08-19T07:49:43;17.83;;;14.05;;
55067;SDS011;40965;52.368;9.712;2022-08-19T07:52:10;22.23;;;14.52;;
55067;SDS011;40965;52.368;9.712;2022-08-19T07:54:37;15.73;;;12.88;;
55067;SDS011;40965;52.368;9.712;2022-08-19T07:57:07;19.15;;;11.77;;
55067;SDS011;40965;52.368;9.712;2022-08-19T07:59:35;13.38;;;11.80;;
55067;SDS011;40965;52.368;9.712;2022-08-19T08:02:04;15.63;;;11.52;;
55067;SDS011;40965;52.368;9.712;2022-08-19T08:04:31;15.25;;;11.38;;
55067;SDS011;40965;52.368;9.712;2022-08-19T08:07:16;13.38;;;10.57;;
55067;SDS011;40965;52.368;9.712;2022-08-19T08:10:03;13.88;;;10.73;;
55067;SDS011;40965;52.368;9.712;2022-08-19T08:12:34;11.88;;;10.50;;
55067;SDS011;40965;52.368;9.712;2022-08-19T08:17:37;13.48;;;9.18;;
55067;SDS011;40965;52.368;9.712;2022-08-19T08:20:05;11.95;;;9.10;;
55067;SDS011;40965;52.368;9.712;2022-08-19T08:22:36;8.23;;;7.45;;
55067;SDS011;40965;52.368;9.712;2022-08-19T08:25:21;9.88;;;7.80;;
55067;SDS011;40965;52.368;9.712;2022-08-19T08:27:54;13.90;;;8.55;;
55067;SDS011;40965;52.368;9.712;2022-08-19T08:30:24;8.63;;;7.55;;
55067;SDS011;40965;52.368;9.712;2022-08-19T08:32:53;8.77;;;7.93;;
55067;SDS011;40965;52.368;9.712;2022-08-19T08:35:23;8.32;;;7.55;;
55067;SDS011;40965;52.368;9.712;2022-08-19T08:37:52;8.27;;;7.47;;
55067;SDS011;40965;52.368;9.712;2022-08-19T08:43:21;7.03;;;6.43;;
55067;SDS011;40965;52.368;9.712;2022-08-19T08:52:25;11.82;;;7.60;;
55067;SDS011;40965;52.368;9.712;2022-08-19T09:00:21;8.32;;;7.53;;
55067;SDS011;40965;52.368;9.712;2022-08-19T09:02:53;9.35;;;6.85;;
55067;SDS011;40965;52.368;9.712;2022-08-19T09:05:25;6.93;;;6.03;;
55067;SDS011;40965;52.368;9.712;2022-08-19T09:08:13;6.22;;;5.68;;
55067;SDS011;40965;52.368;9.712;2022-08-19T09:11:00;6.50;;;5.60;;
55067;SDS011;40965;52.368;9.712;2022-08-19T09:16:29;7.72;;;5.15;;
55067;SDS011;40965;52.368;9.712;2022-08-19T09:18:59;6.00;;;5.35;;
55067;SDS011;40965;52.368;9.712;2022-08-19T09:21:30;4.95;;;3.97;;
55067;SDS011;40965;52.368;9.712;2022-08-19T09:23:57;6.50;;;4.30;;
55067;SDS011;40965;52.368;9.712;2022-08-19T09:26:24;4.68;;;4.28;;
55067;SDS011;40965;52.368;9.712;2022-08-19T09:28:52;4.18;;;3.88;;
55067;SDS011;40965;52.368;9.712;2022-08-19T09:31:21;4.20;;;3.45;;
55067;SDS011;40965;52.368;9.712;2022-08-19T09:33:52;5.95;;;3.80;;
55067;SDS011;40965;52.368;9.712;2022-08-19T09:36:23;3.65;;;3.33;;
55067;SDS011;40965;52.368;9.712;2022-08-19T09:39:09;5.43;;;4.55;;
55067;SDS011;40965;52.368;9.712;2022-08-19T09:41:37;6.13;;;4.93;;
55067;SDS011;40965;52.368;9.712;2022-08-19T09:44:04;4.20;;;3.97;;
55067;SDS011;40965;52.368;9.712;2022-08-19T09:46:32;3.85;;;3.55;;
55067;SDS011;40965;52.368;9.712;2022-08-19T09:49:04;4.05;;;3.30;;
55067;SDS011;40965;52.368;9.712;2022-08-19T09:51:32;5.18;;;3.42;;
55067;SDS011;40965;52.368;9.712;2022-08-19T09:54:00;4.43;;;3.42;;
55067;SDS011;40965;52.368;9.712;2022-08-19T09:56:29;3.95;;;3.65;;
55067;SDS011;40965;52.368;9.712;2022-08-19T09:59:00;5.28;;;3.17;;
55067;SDS011;40965;52.368;9.712;2022-08-19T10:01:29;3.38;;;3.00;;
55067;SDS011;40965;52.368;9.712;2022-08-19T10:04:00;3.55;;;3.17;;
55067;SDS011;40965;52.368;9.712;2022-08-19T10:06:29;3.75;;;2.80;;
55067;SDS011;40965;52.368;9.712;2022-08-19T10:09:00;2.47;;;2.35;;
55067;SDS011;40965;52.368;9.712;2022-08-19T10:11:29;2.53;;;1.92;;
55067;SDS011;40965;52.368;9.712;2022-08-19T10:13:56;2.38;;;2.20;;
55067;SDS011;40965;52.368;9.712;2022-08-19T10:16:24;4.32;;;2.67;;
55067;SDS011;40965;52.368;9.712;2022-08-19T10:18:52;1.88;;;1.65;;
55067;SDS011;40965;52.368;9.712;2022-08-19T10:21:30;2.20;;;2.00;;
55067;SDS011;40965;52.368;9.712;2022-08-19T10:24:01;2.13;;;1.77;;
55067;SDS011;40965;52.368;9.712;2022-08-19T10:26:34;2.55;;;1.45;;
55067;SDS011;40965;52.368;9.712;2022-08-19T10:29:12;3.88;;;1.48;;
55067;SDS011;40965;52.368;9.712;2022-08-19T10:31:44;2.08;;;1.45;;
55067;SDS011;40965;52.368;9.712;2022-08-19T10:34:13;1.50;;;1.50;;
55067;SDS011;40965;52.368;9.712;2022-08-19T10:36:41;2.95;;;1.52;;
55067;SDS011;40965;52.368;9.712;2022-08-19T10:39:08;1.67;;;1.58;;
55067;SDS011;40965;52.368;9.712;2022-08-19T10:41:38;4.53;;;1.20;;
55067;SDS011;40965;52.368;9.712;2022-08-19T10:44:18;1.58;;;1.48;;
55067;SDS011;40965;52.368;9.712;2022-08-19T10:46:46;1.50;;;1.40;;
55067;SDS011;40965;52.368;9.712;2022-08-19T10:49:15;4.47;;;2.15;;
55067;SDS011;40965;52.368;9.712;2022-08-19T10:51:44;1.65;;;1.55;;
55067;SDS011;40965;52.368;9.712;2022-08-19T10:54:32;2.25;;;1.52;;
55067;SDS011;40965;52.368;9.712;2022-08-19T10:57:13;1.50;;;1.20;;
55067;SDS011;40965;52.368;9.712;2022-08-19T10:59:42;1.13;;;1.13;;
55067;SDS011;40965;52.368;9.712;2022-08-19T11:02:09;1.15;;;1.02;;
55067;SDS011;40965;52.368;9.712;2022-08-19T11:04:38;1.08;;;1.08;;
55067;SDS011;40965;52.368;9.712;2022-08-19T11:07:07;2.17;;;1.20;;
55067;SDS011;40965;52.368;9.712;2022-08-19T11:09:44;1.65;;;1.35;;
55067;SDS011;40965;52.368;9.712;2022-08-19T11:12:11;1.63;;;1.60;;
55067;SDS011;40965;52.368;9.712;2022-08-19T11:14:40;1.52;;;1.27;;
55067;SDS011;40965;52.368;9.712;2022-08-19T11:17:09;2.65;;;1.25;;
55067;SDS011;40965;52.368;9.712;2022-08-19T11:19:39;1.30;;;1.30;;
55067;SDS011;40965;52.368;9.712;2022-08-19T11:22:08;1.55;;;1.45;;
55067;SDS011;40965;52.368;9.712;2022-08-19T11:24:37;1.52;;;1.40;;
55067;SDS011;40965;52.368;9.712;2022-08-19T11:27:05;1.30;;;1.20;;
55067;SDS011;40965;52.368;9.712;2022-08-19T11:29:39;1.13;;;1.02;;
55067;SDS011;40965;52.368;9.712;2022-08-19T11:32:09;3.17;;;1.27;;
55067;SDS011;40965;52.368;9.712;2022-08-19T11:34:37;1.60;;;1.13;;
55067;SDS011;40965;52.368;9.712;2022-08-19T11:37:11;1.45;;;1.33;;
55067;SDS011;40965;52.368;9.712;2022-08-19T11:39:38;2.53;;;1.00;;
55067;SDS011;40965;52.368;9.712;2022-08-19T11:42:06;0.93;;;0.93;;
55067;SDS011;40965;52.368;9.712;2022-08-19T11:44:54;2.45;;;1.35;;
55067;SDS011;40965;52.368;9.712;2022-08-19T11:47:22;1.10;;;1.08;;
55067;SDS011;40965;52.368;9.712;2022-08-19T11:49:53;1.73;;;1.05;;
55067;SDS011;40965;52.368;9.712;2022-08-19T11:52:20;1.08;;;0.95;;
55067;SDS011;40965;52.368;9.712;2022-08-19T11:54:48;1.17;;;1.00;;
55067;SDS011;40965;52.368;9.712;2022-08-19T11:57:19;1.23;;;1.20;;
55067;SDS011;40965;52.368;9.712;2022-08-19T11:59:51;2.30;;;0.90;;
55067;SDS011;40965;52.368;9.712;2022-08-19T12:02:19;2.28;;;0.85;;
55067;SDS011;40965;52.368;9.712;2022-08-19T12:04:46;2.28;;;1.13;;
55067;SDS011;40965;52.368;9.712;2022-08-19T12:07:18;1.25;;;0.90;;
55067;SDS011;40965;52.368;9.712;2022-08-19T12:09:45;1.13;;;1.00;;
55067;SDS011;40965;52.368;9.712;2022-08-19T12:12:15;1.77;;;0.98;;
55067;SDS011;40965;52.368;9.712;2022-08-19T12:14:46;2.20;;;1.23;;
55067;SDS011;40965;52.368;9.712;2022-08-19T12:17:13;1.73;;;1.15;;
55067;SDS011;40965;52.368;9.712;2022-08-19T12:19:44;1.10;;;1.10;;
55067;SDS011;40965;52.368;9.712;2022-08-19T12:22:12;0.88;;;0.88;;
55067;SDS011;40965;52.368;9.712;2022-08-19T12:25:06;3.33;;;1.20;;
55067;SDS011;40965;52.368;9.712;2022-08-19T12:27:42;1.30;;;1.27;;
55067;SDS011;40965;52.368;9.712;2022-08-19T12:30:15;1.60;;;1.05;;
55067;SDS011;40965;52.368;9.712;2022-08-19T12:32:47;2.15;;;1.13;;
55067;SDS011;40965;52.368;9.712;2022-08-19T12:35:16;1.00;;;1.00;;
55067;SDS011;40965;52.368;9.712;2022-08-19T12:37:45;2.28;;;0.90;;
55067;SDS011;40965;52.368;9.712;2022-08-19T12:40:14;2.40;;;1.13;;
55067;SDS011;40965;52.368;9.712;2022-08-19T12:42:42;2.38;;;0.98;;
55067;SDS011;40965;52.368;9.712;2022-08-19T12:45:11;0.73;;;0.73;;
55067;SDS011;40965;52.368;9.712;2022-08-19T12:47:43;1.98;;;0.80;;
55067;SDS011;40965;52.368;9.712;2022-08-19T12:50:11;0.88;;;0.88;;
55067;SDS011;40965;52.368;9.712;2022-08-19T12:52:38;1.20;;;1.20;;
55067;SDS011;40965;52.368;9.712;2022-08-19T12:55:07;1.17;;;0.82;;
55067;SDS011;40965;52.368;9.712;2022-08-19T12:57:35;1.25;;;1.15;;
55067;SDS011;40965;52.368;9.712;2022-08-19T13:00:04;1.40;;;1.30;;
55067;SDS011;40965;52.368;9.712;2022-08-19T13:02:52;0.70;;;0.70;;
55067;SDS011;40965;52.368;9.712;2022-08-19T13:05:25;1.07;;;0.93;;
55067;SDS011;40965;52.368;9.712;2022-08-19T13:07:58;0.82;;;0.82;;
55067;SDS011;40965;52.368;9.712;2022-08-19T13:10:28;1.83;;;0.88;;
55067;SDS011;40965;52.368;9.712;2022-08-19T13:13:02;8.23;;;0.95;;
55067;SDS011;40965;52.368;9.712;2022-08-19T13:15:34;0.85;;;0.70;;
55067;SDS011;40965;52.368;9.712;2022-08-19T13:18:09;1.48;;;0.80;;
55067;SDS011;40965;52.368;9.712;2022-08-19T13:20:40;2.25;;;0.80;;
55067;SDS011;40965;52.368;9.712;2022-08-19T13:23:08;0.52;;;0.52;;
55067;SDS011;40965;52.368;9.712;2022-08-19T13:25:55;0.75;;;0.68;;
55067;SDS011;40965;52.368;9.712;2022-08-19T13:28:23;8.95;;;1.67;;
55067;SDS011;40965;52.368;9.712;2022-08-19T13:30:51;2.33;;;1.40;;
55067;SDS011;40965;52.368;9.712;2022-08-19T13:33:36;0.60;;;0.60;;
55067;SDS011;40965;52.368;9.712;2022-08-19T13:36:03;0.88;;;0.57;;
55067;SDS011;40965;52.368;9.712;2022-08-19T13:38:32;0.80;;;0.80;;
55067;SDS011;40965;52.368;9.712;2022-08-19T13:41:04;0.93;;;0.80;;
55067;SDS011;40965;52.368;9.712;2022-08-19T13:43:33;1.00;;;0.80;;
55067;SDS011;40965;52.368;9.712;2022-08-19T13:46:08;0.57;;;0.57;;
55067;SDS011;40965;52.368;9.712;2022-08-19T13:52:09;0.95;;;0.63;;
55067;SDS011;40965;52.368;9.712;2022-08-19T13:54:59;1.13;;;1.00;;
55067;SDS011;40965;52.368;9.712;2022-08-19T13:57:29;1.15;;;1.00;;
55067;SDS011;40965;52.368;9.712;2022-08-19T14:00:05;0.70;;;0.70;;
55067;SDS011;40965;52.368;9.712;2022-08-19T14:02:43;0.63;;;0.63;;
55067;SDS011;40965;52.368;9.712;2022-08-19T14:05:12;0.80;;;0.80;;
55067;SDS011;40965;52.368;9.712;2022-08-19T14:07:49;0.70;;;0.70;;
55067;SDS011;40965;52.368;9.712;2022-08-19T14:10:17;0.57;;;0.57;;
55067;SDS011;40965;52.368;9.712;2022-08-19T14:12:47;2.13;;;0.73;;
55067;SDS011;40965;52.368;9.712;2022-08-19T14:15:14;1.00;;;0.73;;
55067;SDS011;40965;52.368;9.712;2022-08-19T14:17:49;0.82;;;0.77;;
55067;SDS011;40965;52.368;9.712;2022-08-19T14:20:15;1.13;;;1.13;;
55067;SDS011;40965;52.368;9.712;2022-08-19T14:22:45;0.80;;;0.80;;
55067;SDS011;40965;52.368;9.712;2022-08-19T14:25:15;1.60;;;0.90;;
55067;SDS011;40965;52.368;9.712;2022-08-19T14:27:46;1.20;;;1.20;;
55067;SDS011;40965;52.368;9.712;2022-08-19T14:30:15;0.65;;;0.65;;
55067;SDS011;40965;52.368;9.712;2022-08-19T14:32:46;4.40;;;1.20;;
55067;SDS011;40965;52.368;9.712;2022-08-19T14:35:14;1.02;;;0.90;;
55067;SDS011;40965;52.368;9.712;2022-08-19T14:37:50;1.58;;;0.88;;
55067;SDS011;40965;52.368;9.712;2022-08-19T14:40:20;1.83;;;1.05;;
55067;SDS011;40965;52.368;9.712;2022-08-19T14:42:52;1.15;;;0.98;;
55067;SDS011;40965;52.368;9.712;2022-08-19T14:45:29;1.05;;;1.00;;
55067;SDS011;40965;52.368;9.712;2022-08-19T14:48:00;0.85;;;0.85;;
55067;SDS011;40965;52.368;9.712;2022-08-19T14:50:28;2.58;;;1.08;;
55067;SDS011;40965;52.368;9.712;2022-08-19T14:53:02;1.02;;;0.90;;
55067;SDS011;40965;52.368;9.712;2022-08-19T14:55:34;1.02;;;0.95;;
55067;SDS011;40965;52.368;9.712;2022-08-19T14:58:03;1.75;;;1.05;;
55067;SDS011;40965;52.368;9.712;2022-08-19T15:00:33;1.65;;;0.98;;
55067;SDS011;40965;52.368;9.712;2022-08-19T15:03:09;2.38;;;0.93;;
55067;SDS011;40965;52.368;9.712;2022-08-19T15:05:40;2.05;;;1.10;;
55067;SDS011;40965;52.368;9.712;2022-08-19T15:08:10;3.22;;;0.77;;
55067;SDS011;40965;52.368;9.712;2022-08-19T15:11:00;1.33;;;1.33;;
55067;SDS011;40965;52.368;9.712;2022-08-19T15:13:31;1.67;;;1.58;;
55067;SDS011;40965;52.368;9.712;2022-08-19T15:15:58;2.92;;;2.55;;
55067;SDS011;40965;52.368;9.712;2022-08-19T15:18:24;1.13;;;1.08;;
55067;SDS011;40965;52.368;9.712;2022-08-19T15:20:56;1.15;;;1.15;;
55067;SDS011;40965;52.368;9.712;2022-08-19T15:23:22;1.65;;;1.55;;
55067;SDS011;40965;52.368;9.712;2022-08-19T15:25:49;0.90;;;0.90;;
55067;SDS011;40965;52.368;9.712;2022-08-19T15:28:21;3.85;;;2.00;;
55067;SDS011;40965;52.368;9.712;2022-08-19T15:30:49;1.58;;;1.27;;